Time;durP1;ratioP1;P1;durP2;ratioP2;P2;SDS_P1;SDS_P2;PMS_P1;PMS_P2;Temp;Humidity;BMP_temperature;BMP_pressure;BME280_temperature;BME280_humidity;BME280_pressure;Samples;Min_cycle;Max_cycle;Signal;HPM_P1;HPM_P2
2024/02/08 00:02:06;;;;;;;38.72;21.40;;;;;;;7.83;60.67;98885.91;5089451;28;20457;-70
2024/02/08 00:04:34;;;;;;;38.60;18.85;;;;;;;8.14;59.74;98892.38;5070432;28;20512;-70
2024/02/08 00:07:00;;;;;;;42.17;19.90;;;;;;;7.89;60.36;98902.44;5068995;28;20431;-70
2024/02/08 00:09:25;;;;;;;36.08;19.58;;;;;;;8.16;59.67;98892.84;5072698;28;20114;-71
2024/02/08 00:11:51;;;;;;;29.77;19.65;;;;;;;8.45;58.68;98905.22;5090393;28;20052;-71
2024/02/08 00:14:16;;;;;;;39.63;18.67;;;;;;;8.19;58.78;98897.75;5072641;28;20396;-70
2024/02/08 00:16:42;;;;;;;28.52;16.85;;;;;;;8.40;58.57;98888.66;5074284;28;20048;-70
2024/02/08 00:19:07;;;;;;;28.48;16.50;;;;;;;8.26;58.88;98888.88;5074486;28;20044;-70
2024/02/08 00:21:35;;;;;;;37.20;17.08;;;;;;;8.48;59.63;98896.19;5092838;28;20081;-70
2024/02/08 00:24:01;;;;;;;34.90;17.58;;;;;;;8.38;58.84;98897.34;5094332;28;20458;-71
2024/02/08 00:26:26;;;;;;;31.42;17.70;;;;;;;8.56;59.69;98886.16;5094282;28;20051;-71
2024/02/08 00:28:52;;;;;;;32.42;19.42;;;;;;;8.65;58.22;98888.91;5094336;28;20024;-70
2024/02/08 00:31:19;;;;;;;36.90;20.58;;;;;;;8.71;58.12;98893.94;5093363;28;20027;-71
2024/02/08 00:33:46;;;;;;;35.72;18.25;;;;;;;8.86;58.15;98891.72;5093086;28;20463;-70
2024/02/08 00:36:15;;;;;;;36.00;20.15;;;;;;;8.63;58.97;98891.22;5091518;28;20500;-71
2024/02/08 00:38:40;;;;;;;37.28;20.92;;;;;;;8.68;58.86;98891.84;5093012;28;20024;-70
2024/02/08 00:41:06;;;;;;;37.08;19.70;;;;;;;8.73;58.29;98898.38;5092706;28;20243;-70
2024/02/08 00:43:31;;;;;;;34.55;20.92;;;;;;;8.69;59.06;98884.31;5080970;28;20079;-71
2024/02/08 00:45:57;;;;;;;35.85;20.17;;;;;;;8.69;58.89;98887.09;5073739;28;20028;-71
2024/02/08 00:48:22;;;;;;;39.40;19.63;;;;;;;8.47;59.16;98872.25;5080505;28;20020;-71
2024/02/08 00:50:48;;;;;;;35.58;19.90;;;;;;;8.37;59.90;98878.19;5091652;28;20020;-71
2024/02/08 00:53:13;;;;;;;44.08;21.10;;;;;;;8.55;59.23;98879.75;5077122;28;20035;-71
2024/02/08 00:55:43;;;;;;;55.92;27.60;;;;;;;8.67;58.71;98884.63;5071943;28;20056;-71
2024/02/08 00:58:09;;;;;;;;;;;;;;;8.50;58.60;98877.19;5072676;28;20032;-70
2024/02/08 01:00:37;;;;;;;35.88;19.23;;;;;;;8.31;59.79;98885.09;5084827;28;19935;-70
2024/02/08 01:03:04;;;;;;;36.17;22.20;;;;;;;8.41;60.23;98882.78;5093578;28;20078;-71
2024/02/08 01:05:29;;;;;;;38.17;23.45;;;;;;;8.39;60.11;98876.72;5092029;28;20035;-71
2024/02/08 01:07:56;;;;;;;36.97;21.05;;;;;;;8.42;59.54;98881.63;5093653;28;20024;-71
2024/02/08 01:10:21;;;;;;;39.60;20.25;;;;;;;8.38;59.54;98877.03;5085755;28;20480;-70
2024/02/08 01:12:47;;;;;;;45.80;23.80;;;;;;;7.64;62.54;98883.50;5092994;28;20029;-71
2024/02/08 01:15:14;;;;;;;39.60;21.15;;;;;;;7.66;63.13;98875.63;5091862;28;20412;-70
2024/02/08 01:17:42;;;;;;;32.60;20.55;;;;;;;7.34;63.27;98885.31;5076769;28;20033;-70
2024/02/08 01:20:08;;;;;;;41.60;22.10;;;;;;;7.56;62.46;98875.97;5087779;28;20047;-70
2024/02/08 01:22:34;;;;;;;35.30;19.90;;;;;;;7.52;62.55;98875.00;5093339;28;20038;-70
2024/02/08 01:24:59;;;;;;;33.35;19.67;;;;;;;6.60;66.25;98874.75;5092728;28;20047;-70
2024/02/08 01:27:25;;;;;;;38.25;21.42;;;;;;;6.53;67.05;98872.47;5089938;28;20523;-70
2024/02/08 01:29:50;;;;;;;30.83;18.17;;;;;;;6.69;66.06;98872.00;5091207;28;20107;-71
2024/02/08 01:32:17;;;;;;;32.45;19.15;;;;;;;6.82;65.82;98868.25;5091584;28;20400;-70
2024/02/08 01:34:45;;;;;;;26.13;16.15;;;;;;;6.98;64.89;98871.38;5093159;28;20502;-70
2024/02/08 01:37:14;;;;;;;32.10;17.63;;;;;;;6.98;64.81;98868.63;5091539;28;20133;-70
2024/02/08 01:39:41;;;;;;;22.63;15.30;;;;;;;6.55;66.04;98869.34;5092951;28;20023;-70
2024/02/08 01:42:14;;;;;;;34.22;16.52;;;;;;;6.63;66.13;98862.16;5089679;28;20043;-70
2024/02/08 01:44:45;;;;;;;25.75;14.20;;;;;;;6.71;65.64;98850.25;5088385;28;20118;-70
2024/02/08 01:47:12;;;;;;;24.38;14.10;;;;;;;6.57;65.75;98850.38;5091415;28;20024;-70
2024/02/08 01:49:38;;;;;;;25.73;14.35;;;;;;;6.73;65.61;98836.84;5092004;28;20456;-70
2024/02/08 01:52:04;;;;;;;23.02;15.38;;;;;;;6.48;66.06;98835.66;5092505;28;20024;-70
2024/02/08 01:54:30;;;;;;;23.83;14.65;;;;;;;6.45;66.09;98842.69;5090857;28;20096;-70
2024/02/08 01:56:58;;;;;;;23.42;13.35;;;;;;;6.66;65.48;98848.44;5090979;28;20127;-71
2024/02/08 01:59:25;;;;;;;19.73;11.85;;;;;;;6.44;66.24;98846.59;5091228;28;20043;-70
2024/02/08 02:01:54;;;;;;;22.38;11.52;;;;;;;6.55;66.34;98838.78;5087090;28;20528;-70
2024/02/08 02:04:20;;;;;;;21.77;11.93;;;;;;;6.48;65.56;98832.88;5071029;28;20134;-70
2024/02/08 02:06:46;;;;;;;19.58;12.23;;;;;;;6.73;65.29;98834.06;5078303;28;20054;-70
2024/02/08 02:09:23;;;;;;;20.52;11.68;;;;;;;6.86;65.51;98835.88;5092504;28;20024;-71
2024/02/08 02:11:55;;;;;;;20.88;11.48;;;;;;;6.48;65.89;98847.59;5090960;28;20028;-70
2024/02/08 02:14:28;;;;;;;24.98;15.27;;;;;;;6.22;67.26;98839.19;5091889;28;20035;-70
2024/02/08 02:17:03;;;;;;;21.80;12.75;;;;;;;6.11;67.78;98830.31;5073941;28;20462;-70
2024/02/08 02:19:29;;;;;;;26.33;11.55;;;;;;;6.10;67.93;98834.22;5084406;28;20059;-70
2024/02/08 02:21:55;;;;;;;22.83;12.25;;;;;;;5.83;68.61;98838.81;5091386;28;20032;-70
2024/02/08 02:24:24;;;;;;;23.08;12.55;;;;;;;5.56;70.24;98826.78;5090697;28;20061;-70
2024/02/08 02:26:50;;;;;;;19.17;11.67;;;;;;;5.89;69.32;98826.44;5091812;28;20043;-70
2024/02/08 02:29:21;;;;;;;20.10;12.65;;;;;;;5.68;69.34;98823.38;5090575;28;20024;-70
2024/02/08 02:31:49;;;;;;;26.45;13.40;;;;;;;5.59;69.81;98835.25;5089800;28;20027;-70
2024/02/08 02:34:14;;;;;;;26.15;14.00;;;;;;;5.51;70.90;98835.19;5087273;28;20498;-70
2024/02/08 02:36:44;;;;;;;25.08;13.13;;;;;;;5.27;72.26;98839.94;5071159;28;20052;-70
2024/02/08 02:39:12;;;;;;;21.48;11.95;;;;;;;5.37;71.97;98838.88;5071139;28;20033;-70
2024/02/08 02:41:40;;;;;;;20.45;12.02;;;;;;;5.07;73.25;98832.97;5071460;28;20024;-70
2024/02/08 02:44:05;;;;;;;22.05;12.32;;;;;;;5.13;73.57;98845.53;5083909;28;20052;-70
2024/02/08 02:46:31;;;;;;;24.10;12.35;;;;;;;5.08;74.07;98844.84;5090139;28;20516;-70
2024/02/08 02:48:57;;;;;;;21.40;12.20;;;;;;;5.02;74.25;98855.22;5091586;28;20028;-70
2024/02/08 02:51:26;;;;;;;22.35;11.43;;;;;;;4.94;74.52;98853.19;5090771;28;20370;-70
2024/02/08 02:53:51;;;;;;;24.33;12.40;;;;;;;4.56;76.50;98844.03;5086170;28;20027;-70
2024/02/08 02:56:19;;;;;;;20.92;12.80;;;;;;;4.54;77.64;98853.81;5095385;28;20431;-70
2024/02/08 02:58:45;;;;;;;22.38;13.95;;;;;;;4.61;77.29;98851.44;5111735;28;20031;-70
2024/02/08 03:01:12;;;;;;;31.55;17.95;;;;;;;4.57;77.57;98858.72;5093258;28;20046;-70
2024/02/08 03:03:37;;;;;;;25.45;14.57;;;;;;;4.71;76.42;98858.72;5111618;28;20077;-70
2024/02/08 03:06:15;;;;;;;22.20;11.68;;;;;;;4.79;76.24;98857.97;5111811;28;20442;-70
2024/02/08 03:08:45;;;;;;;19.95;11.40;;;;;;;4.96;75.08;98850.97;5090265;28;20089;-70
2024/02/08 03:11:11;;;;;;;16.50;10.63;;;;;;;5.23;73.35;98854.75;5092046;28;20042;-70
2024/02/08 03:13:41;;;;;;;20.02;11.48;;;;;;;5.31;72.94;98846.50;5072911;28;20078;-70
2024/02/08 03:16:10;;;;;;;23.23;11.68;;;;;;;5.38;72.45;98859.91;5072978;28;20028;-70
2024/02/08 03:18:42;;;;;;;23.33;11.43;;;;;;;5.48;72.51;98856.91;5090931;28;20404;-70
2024/02/08 03:21:09;;;;;;;23.63;11.20;;;;;;;5.44;71.71;98858.69;5110873;28;20026;-68
2024/02/08 03:23:35;;;;;;;24.88;11.88;;;;;;;5.40;71.79;98854.88;5093229;28;20404;-69
2024/02/08 03:26:04;;;;;;;23.10;14.05;;;;;;;5.30;72.85;98857.91;5110736;28;20106;-68
2024/02/08 03:28:30;;;;;;;24.98;13.85;;;;;;;5.25;72.83;98846.94;5084861;28;20031;-68
2024/02/08 03:30:56;;;;;;;22.33;11.60;;;;;;;5.22;72.83;98853.13;5110792;28;20436;-68
2024/02/08 03:33:22;;;;;;;16.85;11.38;;;;;;;5.08;73.13;98859.53;5092813;28;20020;-69
2024/02/08 03:35:53;;;;;;;19.45;11.00;;;;;;;5.11;73.36;98858.06;5111281;28;20042;-68
2024/02/08 03:38:24;;;;;;;20.88;12.57;;;;;;;5.11;73.27;98861.69;5107357;28;20039;-68
2024/02/08 03:40:49;;;;;;;24.83;12.73;;;;;;;5.05;73.41;98866.53;5092771;28;20020;-68
2024/02/08 03:43:15;;;;;;;22.63;12.38;;;;;;;4.74;74.55;98863.63;5091428;28;20103;-69
2024/02/08 03:45:43;;;;;;;22.20;12.35;;;;;;;4.87;74.96;98871.09;5111065;28;20814;-68
2024/02/08 03:48:10;;;;;;;25.65;12.63;;;;;;;4.88;74.39;98869.13;5091966;28;20027;-68
2024/02/08 03:50:37;;;;;;;22.75;11.73;;;;;;;5.26;74.76;98879.06;5110623;28;20031;-68
2024/02/08 03:53:12;;;;;;;17.27;10.68;;;;;;;5.14;74.44;98876.88;5110634;28;20016;-69
2024/02/08 03:55:44;;;;;;;23.95;11.88;;;;;;;5.14;74.10;98866.59;5110090;28;20115;-68
2024/02/08 03:58:10;;;;;;;21.73;11.50;;;;;;;5.38;72.91;98865.47;5110849;28;20506;-68
2024/02/08 04:00:42;;;;;;;26.50;12.38;;;;;;;5.54;72.39;98863.13;5109273;28;20034;-69
2024/02/08 04:03:14;;;;;;;20.95;12.65;;;;;;;5.53;72.26;98863.44;5072168;28;20089;-68
2024/02/08 04:54:57;;;;;;;28.15;16.02;;;;;;;5.14;73.93;98876.88;5084952;28;20050;-70
2024/02/08 04:57:25;;;;;;;32.17;16.15;;;;;;;5.27;73.14;98875.16;5089864;28;20134;-70
2024/02/08 04:59:50;;;;;;;27.42;16.33;;;;;;;5.12;73.90;98873.56;5090729;28;20091;-70
2024/02/08 05:02:16;;;;;;;39.25;19.48;;;;;;;5.14;73.35;98880.44;5107225;28;20099;-70
2024/02/08 05:04:42;;;;;;;48.88;22.52;;;;;;;4.83;74.03;98886.72;5093436;28;20024;-70
2024/02/08 05:07:08;;;;;;;41.45;21.13;;;;;;;4.89;75.13;98881.88;5102881;28;20088;-70
2024/02/08 05:09:34;;;;;;;50.10;20.08;;;;;;;5.11;74.22;98883.03;5113850;28;20440;-70
2024/02/08 05:12:00;;;;;;;96.45;52.58;;;;;;;4.64;74.95;98875.72;5094850;28;20106;-70
2024/02/08 05:14:26;;;;;;;168.43;78.93;;;;;;;4.47;76.90;98874.44;5113456;28;20023;-70
2024/02/08 05:16:55;;;;;;;182.30;80.97;;;;;;;4.60;76.49;98875.56;5113679;28;20026;-70
2024/02/08 05:19:23;;;;;;;93.70;49.13;;;;;;;4.50;76.59;98873.00;5105910;28;20032;-70
2024/02/08 05:21:50;;;;;;;72.68;36.80;;;;;;;4.35;77.53;98876.91;5111212;28;20436;-70
2024/02/08 05:24:16;;;;;;;82.53;38.28;;;;;;;4.32;77.98;98883.06;5112751;28;20491;-70
2024/02/08 05:26:43;;;;;;;71.60;39.40;;;;;;;4.16;78.41;98880.59;5103124;28;20112;-70
2024/02/08 05:29:09;;;;;;;80.43;42.63;;;;;;;4.05;79.09;98885.50;5074216;28;20035;-70
2024/02/08 05:31:39;;;;;;;88.13;41.92;;;;;;;4.41;77.96;98880.38;5074529;28;20028;-70
2024/02/08 05:34:10;;;;;;;55.85;25.23;;;;;;;4.57;77.82;98873.38;5092589;28;20107;-70
2024/02/08 05:36:39;;;;;;;64.63;33.65;;;;;;;4.42;77.01;98871.78;5096086;28;20024;-70
2024/02/08 05:39:07;;;;;;;67.00;33.85;;;;;;;4.06;79.12;98867.75;5108509;28;20032;-70
2024/02/08 05:41:34;;;;;;;56.28;29.17;;;;;;;3.77;80.47;98866.09;5094508;28;20089;-68
2024/02/08 05:44:05;;;;;;;66.85;35.28;;;;;;;3.78;81.52;98873.25;5090699;28;20101;-68
2024/02/08 05:46:37;;;;;;;60.53;31.95;;;;;;;3.58;82.17;98881.91;5074576;28;20571;-68
2024/02/08 05:49:13;;;;;;;61.65;30.77;;;;;;;3.55;83.33;98879.75;5106372;28;20498;-68
2024/02/08 05:51:46;;;;;;;76.20;42.00;;;;;;;3.50;82.85;98884.25;5093935;28;20110;-68
2024/02/08 05:54:20;;;;;;;44.67;22.83;;;;;;;3.42;83.15;98868.34;5112823;28;20408;-71
2024/02/08 05:56:45;;;;;;;37.15;18.10;;;;;;;3.69;82.00;98869.56;5112518;28;20127;-69
2024/02/08 05:59:15;;;;;;;53.38;18.13;;;;;;;3.55;81.50;98885.28;5111886;28;20142;-69
2024/02/08 06:01:54;;;;;;;90.82;36.55;;;;;;;3.60;81.99;98877.72;5090926;28;20035;-67
2024/02/08 06:04:34;;;;;;;67.85;30.15;;;;;;;3.87;81.50;98886.41;5111844;28;20076;-67
2024/02/08 06:07:05;;;;;;;51.88;24.48;;;;;;;4.06;79.84;98902.94;5104137;28;20035;-69
2024/02/08 06:09:55;;;;;;;42.97;23.30;;;;;;;3.82;81.38;98914.97;5109602;28;20889;-66
2024/02/08 06:15:14;;;;;;;35.45;21.10;;;;;;;4.04;80.60;98919.84;5110322;28;20042;-67
2024/02/08 06:17:45;;;;;;;41.22;19.45;;;;;;;4.12;80.44;98912.78;5102455;28;20063;-67
2024/02/08 06:20:14;;;;;;;48.83;25.45;;;;;;;4.31;79.02;98925.72;5082703;28;20019;-69
2024/02/08 06:22:43;;;;;;;83.97;33.83;;;;;;;4.28;79.63;98921.59;5096472;28;20027;-67
2024/02/08 06:25:09;;;;;;;73.55;25.65;;;;;;;4.24;80.00;98926.13;5088561;28;20494;-68
2024/02/08 06:27:41;;;;;;;63.95;25.58;;;;;;;4.20;80.44;98923.16;5108708;28;20036;-69
2024/02/08 06:30:08;;;;;;;50.22;24.17;;;;;;;4.20;80.83;98911.25;5090119;28;20085;-69
2024/02/08 06:32:43;;;;;;;84.03;27.25;;;;;;;4.28;80.54;98920.78;5107676;28;20140;-70
2024/02/08 06:35:11;;;;;;;94.75;38.60;;;;;;;4.39;80.36;98924.19;5108998;28;20036;-67
2024/02/08 06:37:44;;;;;;;86.03;44.95;;;;;;;4.61;79.47;98935.38;5105121;28;20039;-67
2024/02/08 06:40:24;;;;;;;48.28;28.10;;;;;;;4.86;77.69;98935.13;5088392;28;20036;-68
2024/02/08 06:43:26;;;;;;;39.53;22.63;;;;;;;4.81;77.91;98940.78;5105252;28;20023;-68
2024/02/08 07:37:27;;;;;;;33.97;19.63;;;;;;;7.01;75.26;98958.91;5104602;28;20101;-68
2024/02/08 07:40:02;;;;;;;31.60;16.15;;;;;;;6.98;74.21;98957.59;5101651;28;20024;-67
2024/02/08 07:42:41;;;;;;;36.28;15.10;;;;;;;6.96;74.39;98961.81;5105449;28;20020;-69
2024/02/08 07:45:07;;;;;;;28.33;15.65;;;;;;;7.02;73.85;98953.00;5100672;28;20112;-68
2024/02/08 07:47:33;;;;;;;35.38;19.67;;;;;;;6.91;74.52;98948.91;5103001;28;20077;-67
2024/02/08 07:50:09;;;;;;;41.08;20.90;;;;;;;7.13;73.64;98953.53;5093164;28;20031;-67
2024/02/08 07:52:46;;;;;;;27.75;17.02;;;;;;;7.36;72.35;98941.44;5100151;28;20034;-67
2024/02/08 07:55:20;;;;;;;33.20;17.88;;;;;;;7.51;71.96;98937.38;5105745;28;20030;-66
2024/02/08 07:57:51;;;;;;;33.38;18.40;;;;;;;7.69;71.47;98938.19;5101161;28;20031;-65
2024/02/08 08:00:32;;;;;;;32.45;15.00;;;;;;;7.83;70.65;98935.19;5082099;28;20792;-67
2024/02/08 08:03:07;;;;;;;26.33;16.27;;;;;;;7.91;70.01;98934.38;5083611;28;20069;-65
2024/02/08 08:05:35;;;;;;;49.60;21.08;;;;;;;8.05;68.98;98925.84;5100400;28;20034;-64
2024/02/08 08:08:01;;;;;;;67.15;31.08;;;;;;;8.19;69.24;98933.97;5068816;28;20032;-67
2024/02/08 08:10:33;;;;;;;64.53;31.13;;;;;;;8.38;68.95;98916.84;5102412;28;20029;-64
2024/02/08 08:13:06;;;;;;;66.18;40.28;;;;;;;8.50;67.17;98932.06;5097087;28;20019;-66
2024/02/08 08:15:49;;;;;;;61.25;34.30;;;;;;;8.35;66.61;98925.09;5084659;28;20032;-66
2024/02/08 08:18:29;;;;;;;69.50;28.33;;;;;;;8.54;67.46;98919.13;5084811;28;20023;-65
2024/02/08 08:20:58;;;;;;;;;;;;;;;8.89;66.89;98923.72;5096911;28;20034;-69
2024/02/08 08:23:27;;;;;;;60.65;28.42;;;;;;;9.09;65.65;98930.47;5081122;28;19929;-67
2024/02/08 08:26:00;;;;;;;74.47;34.08;;;;;;;8.55;66.39;98929.13;5093636;28;20449;-66
2024/02/08 08:28:51;;;;;;;80.68;40.67;;;;;;;8.54;66.21;98927.50;5078345;28;20028;-69
2024/02/08 08:31:51;;;;;;;70.65;40.60;;;;;;;9.04;64.43;98920.31;5094126;28;20036;-66
2024/02/08 08:36:58;;;;;;;73.18;35.22;;;;;;;9.26;63.77;98912.78;5099834;28;20038;-68
2024/02/08 08:40:20;;;;;;;66.22;34.08;;;;;;;9.44;62.97;98910.69;5099911;28;20039;-70
2024/02/08 08:42:16;;;;;;;54.97;29.85;;;;;;;9.80;61.66;98912.00;5100729;28;20503;-67
2024/02/08 08:45:09;;;;;;;65.22;29.67;;;;;;;10.06;61.02;98910.13;5108218;28;20046;-67
2024/02/08 08:47:31;;;;;;;49.15;27.52;;;;;;;10.29;60.84;98901.31;5098882;28;20043;-68
2024/02/08 08:49:57;;;;;;;54.80;25.98;;;;;;;10.59;60.45;98904.75;5103102;28;20054;-70
2024/02/08 08:52:23;;;;;;;58.15;25.13;;;;;;;10.84;57.31;98895.53;5105544;28;20031;-68
2024/02/08 08:55:10;;;;;;;46.40;22.35;;;;;;;11.11;56.25;98902.38;5098474;28;20424;-69
2024/02/08 08:57:39;;;;;;;39.08;19.95;;;;;;;11.49;55.07;98897.50;5071491;28;20407;-71
2024/02/08 09:00:19;;;;;;;57.00;18.50;;;;;;;11.84;53.28;98899.69;5109826;28;20384;-72
2024/02/08 09:02:50;;;;;;;48.15;15.75;;;;;;;12.15;52.20;98898.16;5087405;28;20037;-71
2024/02/08 09:05:30;;;;;;;31.65;14.98;;;;;;;12.50;50.66;98896.66;5088760;28;20028;-70
2024/02/08 09:07:59;;;;;;;31.90;14.57;;;;;;;12.72;49.09;98886.75;5105435;28;20065;-70
2024/02/08 09:10:34;;;;;;;21.75;11.75;;;;;;;13.00;48.03;98887.81;5108659;28;20110;-70
2024/02/08 09:13:06;;;;;;;18.77;9.95;;;;;;;13.31;46.80;98892.50;5111625;28;20031;-69
2024/02/08 09:15:47;;;;;;;22.23;9.05;;;;;;;13.50;45.07;98890.91;5110495;28;20031;-70
2024/02/08 09:18:15;;;;;;;37.95;16.60;;;;;;;13.56;51.64;98892.25;5110138;28;20054;-70
2024/02/08 09:20:42;;;;;;;26.25;14.07;;;;;;;13.72;51.90;98888.56;5111736;28;20027;-68
2024/02/08 09:23:13;;;;;;;25.50;12.15;;;;;;;13.88;48.13;98886.50;5111717;28;20392;-68
2024/02/08 09:25:46;;;;;;;36.88;13.25;;;;;;;14.05;49.71;98890.00;5110765;28;20073;-69
2024/02/08 09:28:26;;;;;;;41.97;20.38;;;;;;;13.95;53.21;98880.19;5093126;28;20070;-70
2024/02/08 09:30:56;;;;;;;36.70;18.90;;;;;;;14.01;52.97;98875.06;5099510;28;20046;-70
2024/02/08 09:33:31;;;;;;;36.70;20.08;;;;;;;14.11;51.64;98870.81;5109020;28;20194;-69
2024/02/08 09:35:59;;;;;;;38.53;21.65;;;;;;;14.24;52.74;98863.84;5111978;28;20064;-69
2024/02/08 09:38:29;;;;;;;34.83;21.42;;;;;;;14.40;51.51;98857.25;5109629;28;20034;-68
2024/02/08 09:40:59;;;;;;;35.83;20.40;;;;;;;14.54;49.84;98854.69;5111094;28;20026;-69
2024/02/08 09:43:29;;;;;;;;;;;;;;;14.66;49.13;98853.66;5087708;28;20158;-72
2024/02/08 09:46:16;;;;;;;39.30;16.50;;;;;;;14.82;47.61;98844.28;5089476;28;19918;-69
2024/02/08 09:48:47;;;;;;;30.13;13.75;;;;;;;15.02;46.14;98848.59;5103727;28;20043;-68
2024/02/08 09:51:23;;;;;;;15.13;9.20;;;;;;;15.34;40.74;98849.44;5111254;28;20027;-69
2024/02/08 09:53:52;;;;;;;22.20;9.32;;;;;;;15.57;41.27;98855.78;5089298;28;20039;-69
2024/02/08 09:56:39;;;;;;;22.30;11.07;;;;;;;15.68;43.20;98852.25;5096007;28;20054;-69
2024/02/08 09:59:08;;;;;;;16.23;9.70;;;;;;;15.68;41.11;98838.16;5107176;28;20106;-69
2024/02/08 10:01:44;;;;;;;15.93;6.95;;;;;;;15.91;38.71;98835.22;5107262;28;20036;-69
2024/02/08 10:04:17;;;;;;;22.85;10.88;;;;;;;16.08;41.34;98830.16;5111088;28;20601;-69
2024/02/08 10:06:45;;;;;;;23.60;11.23;;;;;;;16.16;40.22;98822.56;5107610;28;20034;-69
2024/02/08 10:12:06;;;;;;;15.65;8.70;;;;;;;16.27;38.60;98824.28;5108907;28;20059;-71
2024/02/08 10:14:33;;;;;;;14.50;7.20;;;;;;;16.44;38.02;98816.34;5082492;28;20036;-70
2024/02/08 10:17:24;;;;;;;14.48;8.32;;;;;;;16.53;38.00;98816.00;5090820;28;20028;-67
2024/02/08 10:22:54;;;;;;;16.45;8.57;;;;;;;16.58;38.31;98804.38;5091580;28;20096;-71
2024/02/08 10:28:21;;;;;;;24.90;7.55;;;;;;;16.78;36.68;98790.00;5107264;28;20062;-71
2024/02/08 10:31:05;;;;;;;12.27;6.80;;;;;;;16.86;36.64;98779.53;5110788;28;20031;-71
2024/02/08 10:33:37;;;;;;;18.00;7.80;;;;;;;16.86;36.49;98777.50;5087496;28;20092;-73
2024/02/08 10:36:10;;;;;;;17.27;8.20;;;;;;;16.81;39.46;98778.69;5089814;28;20038;-73
2024/02/08 10:41:57;;;;;;;12.43;7.57;;;;;;;16.90;38.69;98769.88;5072886;28;20185;-74
2024/02/08 10:44:24;;;;;;;12.77;7.75;;;;;;;17.09;37.73;98765.16;5101749;28;20031;-71
2024/02/08 10:47:06;;;;;;;17.90;9.30;;;;;;;16.96;39.82;98768.28;5087697;28;20100;-72
2024/02/08 10:49:51;;;;;;;21.33;9.73;;;;;;;16.92;40.32;98761.00;5087428;28;20039;-71
2024/02/08 10:52:22;;;;;;;16.40;10.80;;;;;;;16.82;39.92;98759.75;5091878;28;20474;-70
2024/02/08 10:54:55;;;;;;;20.95;9.80;;;;;;;16.98;38.25;98756.59;5100639;28;20073;-71
2024/02/08 10:57:39;;;;;;;21.00;9.43;;;;;;;17.12;39.29;98753.06;5104231;28;20047;-73
2024/02/08 11:03:00;;;;;;;19.90;10.32;;;;;;;17.15;39.74;98749.44;5106244;28;20443;-73
2024/02/08 11:07:53;;;;;;;16.85;9.35;;;;;;;17.07;39.83;98733.66;5100767;28;20035;-72
2024/02/08 11:10:31;;;;;;;14.73;7.63;;;;;;;17.21;38.95;98735.75;5087289;28;20468;-71
2024/02/08 11:13:02;;;;;;;19.35;8.98;;;;;;;17.26;38.76;98736.19;5104173;28;20031;-73
2024/02/08 11:15:38;;;;;;;23.02;8.60;;;;;;;17.25;38.74;98726.09;5101382;28;20064;-71
2024/02/08 11:18:06;;;;;;;17.33;8.20;;;;;;;17.29;38.03;98723.25;5081944;28;20405;-72
2024/02/08 11:20:43;;;;;;;18.77;8.07;;;;;;;17.21;37.00;98722.41;5086309;28;20140;-72
2024/02/08 11:23:10;;;;;;;14.85;7.50;;;;;;;17.39;36.90;98721.69;5095295;28;20499;-70
2024/02/08 11:25:38;;;;;;;16.10;8.70;;;;;;;17.43;35.93;98719.66;5074463;28;20036;-71
2024/02/08 11:28:16;;;;;;;15.30;7.32;;;;;;;17.62;35.67;98717.69;5095352;28;20102;-71
2024/02/08 11:30:46;;;;;;;12.20;7.68;;;;;;;17.74;34.52;98706.00;5093253;28;20411;-68
2024/02/08 11:33:13;;;;;;;16.77;7.55;;;;;;;17.73;34.36;98704.34;5096416;28;20020;-68
2024/02/08 11:35:54;;;;;;;13.27;7.95;;;;;;;17.85;32.81;98702.34;5103912;28;20031;-68
2024/02/08 11:38:34;;;;;;;18.40;9.68;;;;;;;17.89;32.74;98709.63;5071797;28;20045;-68
2024/02/08 11:41:10;;;;;;;21.23;9.93;;;;;;;18.05;32.79;98695.09;5088545;28;20423;-68
2024/02/08 11:43:46;;;;;;;13.13;7.43;;;;;;;17.95;32.32;98696.69;5078245;28;20448;-69
2024/02/08 11:46:21;;;;;;;11.05;7.00;;;;;;;18.12;32.05;98693.50;5083516;28;20023;-69
2024/02/08 11:48:48;;;;;;;13.00;7.40;;;;;;;18.09;32.24;98684.56;5078612;28;20035;-68
2024/02/08 11:51:17;;;;;;;9.57;6.18;;;;;;;18.22;32.78;98692.66;5090555;28;20053;-69
2024/02/08 11:53:46;;;;;;;13.15;7.63;;;;;;;18.30;31.20;98682.94;5090556;28;20032;-68
2024/02/08 11:56:15;;;;;;;7.72;5.47;;;;;;;18.20;31.68;98673.25;5098810;28;20043;-68
2024/02/08 11:58:43;;;;;;;12.57;6.13;;;;;;;18.19;31.56;98668.81;5083821;28;20024;-69
2024/02/08 12:01:13;;;;;;;9.00;6.07;;;;;;;18.38;31.73;98673.22;5097332;28;20407;-69
2024/02/08 12:03:42;;;;;;;11.97;6.00;;;;;;;18.33;31.24;98659.47;5071832;28;20042;-69
2024/02/08 12:06:29;;;;;;;9.90;5.13;;;;;;;18.31;31.36;98667.56;5089225;28;20475;-68
2024/02/08 12:09:03;;;;;;;17.23;6.07;;;;;;;18.32;31.06;98663.53;5085036;28;20411;-69
2024/02/08 12:11:30;;;;;;;10.23;5.53;;;;;;;18.41;30.60;98660.28;5099008;28;20035;-69
2024/02/08 12:14:07;;;;;;;8.60;5.45;;;;;;;18.42;30.17;98666.75;5103885;28;20043;-69
2024/02/08 12:16:33;;;;;;;17.30;6.03;;;;;;;18.51;30.78;98652.97;5097418;28;20030;-70
2024/02/08 12:19:05;;;;;;;11.20;5.65;;;;;;;18.59;29.89;98654.56;5104719;28;20028;-70
2024/02/08 12:21:35;;;;;;;23.95;6.10;;;;;;;18.60;30.16;98649.69;5105982;28;20028;-70
2024/02/08 12:24:01;;;;;;;15.65;7.60;;;;;;;18.62;30.72;98647.25;5104686;28;20031;-70
2024/02/08 12:26:31;;;;;;;13.38;6.18;;;;;;;18.77;30.26;98654.50;5104143;28;20027;-69
2024/02/08 12:29:01;;;;;;;11.13;5.65;;;;;;;18.57;31.07;98636.38;5103217;28;20031;-69
2024/02/08 12:31:29;;;;;;;17.70;6.60;;;;;;;18.58;30.94;98641.63;5084322;28;20304;-69
2024/02/08 12:33:57;;;;;;;15.65;6.35;;;;;;;18.51;30.25;98631.13;5092610;28;20024;-69
2024/02/08 12:36:24;;;;;;;11.60;5.05;;;;;;;18.57;30.11;98623.00;5097583;28;20538;-70
2024/02/08 12:38:51;;;;;;;14.13;5.15;;;;;;;18.56;30.51;98629.88;5091903;28;20046;-71
2024/02/08 12:41:21;;;;;;;10.48;4.95;;;;;;;18.63;30.14;98631.88;5082802;28;20465;-71
2024/02/08 12:43:52;;;;;;;10.50;4.82;;;;;;;18.77;30.22;98636.69;5106097;28;20104;-71
2024/02/08 12:46:19;;;;;;;14.40;6.32;;;;;;;18.87;30.07;98632.19;5097802;28;20291;-71
2024/02/08 12:48:47;;;;;;;16.55;5.65;;;;;;;18.86;29.55;98634.22;5083360;28;20027;-72
2024/02/08 12:51:19;;;;;;;21.85;5.35;;;;;;;18.86;29.30;98628.56;5098709;28;20019;-71
2024/02/08 12:54:07;;;;;;;12.88;5.43;;;;;;;18.88;29.81;98623.28;5096981;28;20028;-71
2024/02/08 12:56:36;;;;;;;8.93;4.32;;;;;;;18.76;29.39;98623.75;5092261;28;20535;-71
2024/02/08 12:59:03;;;;;;;9.02;4.40;;;;;;;18.81;29.23;98617.66;5098227;28;20492;-71
2024/02/08 13:01:38;;;;;;;9.68;5.10;;;;;;;18.69;30.27;98618.94;5081312;28;20095;-71
2024/02/08 13:04:06;;;;;;;14.48;4.07;;;;;;;18.75;29.78;98625.75;5103001;28;20531;-72
2024/02/08 13:06:32;;;;;;;13.30;4.85;;;;;;;18.85;29.42;98620.47;5076910;28;20031;-71
2024/02/08 13:09:25;;;;;;;15.65;5.97;;;;;;;19.02;29.23;98622.44;5094219;28;20011;-72
2024/02/08 13:11:50;;;;;;;6.47;4.57;;;;;;;18.89;29.93;98615.63;5092673;28;20042;-72
2024/02/08 13:14:18;;;;;;;9.32;5.60;;;;;;;18.76;30.27;98612.44;5085408;28;20019;-71
2024/02/08 13:16:44;;;;;;;8.93;4.53;;;;;;;18.56;30.38;98615.72;5092570;28;20024;-71
2024/02/08 13:19:13;;;;;;;6.20;4.30;;;;;;;18.40;30.36;98604.88;5106323;28;20027;-71
2024/02/08 13:21:46;;;;;;;6.20;4.53;;;;;;;18.45;30.48;98609.31;5085756;28;20047;-72
2024/02/08 13:24:11;;;;;;;11.55;5.97;;;;;;;18.54;31.10;98606.84;5091199;28;20407;-72
2024/02/08 13:26:37;;;;;;;9.80;5.13;;;;;;;18.78;30.95;98598.66;5109215;28;20019;-71
2024/02/08 13:29:03;;;;;;;17.15;5.55;;;;;;;18.61;30.93;98606.84;5107657;28;20023;-72
2024/02/08 13:31:29;;;;;;;9.93;5.50;;;;;;;18.57;30.55;98608.84;5106381;28;20472;-72
2024/02/08 13:33:55;;;;;;;9.52;4.93;;;;;;;18.69;30.60;98610.44;5106946;28;20026;-71
2024/02/08 13:36:25;;;;;;;11.68;6.25;;;;;;;18.52;30.73;98614.94;5101303;28;20454;-71
2024/02/08 13:38:51;;;;;;;11.98;7.00;;;;;;;18.54;30.92;98618.16;5095996;28;20023;-71
2024/02/08 13:41:17;;;;;;;11.98;6.03;;;;;;;18.40;29.82;98609.72;5104725;28;20034;-71
2024/02/08 13:43:46;;;;;;;15.85;5.55;;;;;;;18.54;30.26;98608.88;5097391;28;20020;-71
2024/02/08 13:46:13;;;;;;;15.70;6.38;;;;;;;18.53;30.68;98608.06;5098789;28;20036;-71